sensor_id;sensor_type;location;lat;lon;timestamp;temperature;humidity
23729;DHT22;12045;60.214;24.724;2023-10-08T00:01:18;3.80;99.90
23729;DHT22;12045;60.214;24.724;2023-10-08T00:03:47;4.10;99.90
23729;DHT22;12045;60.214;24.724;2023-10-08T00:06:20;3.80;99.90
23729;DHT22;12045;60.214;24.724;2023-10-08T00:08:49;3.90;99.90
23729;DHT22;12045;60.214;24.724;2023-10-08T00:11:17;3.80;99.90
23729;DHT22;12045;60.214;24.724;2023-10-08T00:13:45;4.30;99.90
23729;DHT22;12045;60.214;24.724;2023-10-08T00:16:16;4.50;99.90
23729;DHT22;12045;60.214;24.724;2023-10-08T00:18:45;4.10;99.90
23729;DHT22;12045;60.214;24.724;2023-10-08T00:21:17;4.10;99.90
23729;DHT22;12045;60.214;24.724;2023-10-08T00:23:47;3.90;99.90
23729;DHT22;12045;60.214;24.724;2023-10-08T00:26:20;4.40;99.90
23729;DHT22;12045;60.214;24.724;2023-10-08T00:28:56;4.30;99.90
23729;DHT22;12045;60.214;24.724;2023-10-08T00:31:24;4.10;99.90
23729;DHT22;12045;60.214;24.724;2023-10-08T00:33:58;4.20;99.90
23729;DHT22;12045;60.214;24.724;2023-10-08T00:36:25;4.00;99.90
23729;DHT22;12045;60.214;24.724;2023-10-08T00:38:53;4.40;99.90
23729;DHT22;12045;60.214;24.724;2023-10-08T00:41:26;4.30;99.90
23729;DHT22;12045;60.214;24.724;2023-10-08T00:43:59;4.30;99.90
23729;DHT22;12045;60.214;24.724;2023-10-08T00:46:28;3.90;99.90
23729;DHT22;12045;60.214;24.724;2023-10-08T00:49:03;4.20;99.90
23729;DHT22;12045;60.214;24.724;2023-10-08T00:51:54;3.80;99.90
23729;DHT22;12045;60.214;24.724;2023-10-08T00:54:52;4.00;99.90
23729;DHT22;12045;60.214;24.724;2023-10-08T00:57:33;4.10;99.90
23729;DHT22;12045;60.214;24.724;2023-10-08T01:00:05;3.70;99.90
23729;DHT22;12045;60.214;24.724;2023-10-08T01:02:44;3.70;99.90
23729;DHT22;12045;60.214;24.724;2023-10-08T01:05:28;3.70;99.90
23729;DHT22;12045;60.214;24.724;2023-10-08T01:08:17;4.60;99.90
23729;DHT22;12045;60.214;24.724;2023-10-08T01:10:52;3.60;99.90
23729;DHT22;12045;60.214;24.724;2023-10-08T01:13:30;4.20;99.90
23729;DHT22;12045;60.214;24.724;2023-10-08T01:16:03;3.90;99.90
23729;DHT22;12045;60.214;24.724;2023-10-08T01:18:32;4.00;99.90
23729;DHT22;12045;60.214;24.724;2023-10-08T01:21:02;3.60;99.90
23729;DHT22;12045;60.214;24.724;2023-10-08T01:23:38;3.90;99.90
23729;DHT22;12045;60.214;24.724;2023-10-08T01:26:06;4.20;99.90
23729;DHT22;12045;60.214;24.724;2023-10-08T01:28:41;3.60;99.90
23729;DHT22;12045;60.214;24.724;2023-10-08T01:31:11;3.90;99.90
23729;DHT22;12045;60.214;24.724;2023-10-08T01:33:40;3.90;99.90
23729;DHT22;12045;60.214;24.724;2023-10-08T01:36:14;4.70;99.90
23729;DHT22;12045;60.214;24.724;2023-10-08T01:38:42;3.60;99.90
23729;DHT22;12045;60.214;24.724;2023-10-08T01:41:09;3.80;99.90
23729;DHT22;12045;60.214;24.724;2023-10-08T01:43:48;4.80;99.90
23729;DHT22;12045;60.214;24.724;2023-10-08T01:46:17;3.60;99.90
23729;DHT22;12045;60.214;24.724;2023-10-08T01:48:44;3.90;99.90
23729;DHT22;12045;60.214;24.724;2023-10-08T01:51:12;4.00;99.90
23729;DHT22;12045;60.214;24.724;2023-10-08T01:53:54;4.10;99.90
23729;DHT22;12045;60.214;24.724;2023-10-08T01:56:22;4.00;99.90
23729;DHT22;12045;60.214;24.724;2023-10-08T01:58:51;4.00;99.90
23729;DHT22;12045;60.214;24.724;2023-10-08T02:01:22;3.70;99.90
23729;DHT22;12045;60.214;24.724;2023-10-08T02:03:49;4.00;99.90
23729;DHT22;12045;60.214;24.724;2023-10-08T02:06:17;4.10;99.90
23729;DHT22;12045;60.214;24.724;2023-10-08T02:08:44;3.60;99.90
23729;DHT22;12045;60.214;24.724;2023-10-08T02:11:12;3.80;99.90
23729;DHT22;12045;60.214;24.724;2023-10-08T02:13:39;3.80;99.90
23729;DHT22;12045;60.214;24.724;2023-10-08T02:16:07;4.00;99.90
23729;DHT22;12045;60.214;24.724;2023-10-08T02:18:34;3.70;99.90
23729;DHT22;12045;60.214;24.724;2023-10-08T02:21:02;4.00;99.90
23729;DHT22;12045;60.214;24.724;2023-10-08T02:23:32;3.70;99.90
23729;DHT22;12045;60.214;24.724;2023-10-08T02:26:02;4.20;99.90
23729;DHT22;12045;60.214;24.724;2023-10-08T02:28:30;3.90;99.90
23729;DHT22;12045;60.214;24.724;2023-10-08T02:30:57;4.40;99.90
23729;DHT22;12045;60.214;24.724;2023-10-08T02:33:26;3.70;99.90
23729;DHT22;12045;60.214;24.724;2023-10-08T02:35:54;4.00;99.90
23729;DHT22;12045;60.214;24.724;2023-10-08T02:38:22;4.20;99.90
23729;DHT22;12045;60.214;24.724;2023-10-08T02:40:50;4.70;99.90
23729;DHT22;12045;60.214;24.724;2023-10-08T02:43:18;4.20;99.90
23729;DHT22;12045;60.214;24.724;2023-10-08T02:45:47;3.90;99.90
23729;DHT22;12045;60.214;24.724;2023-10-08T02:48:17;3.70;99.90
23729;DHT22;12045;60.214;24.724;2023-10-08T02:50:47;4.10;99.90
23729;DHT22;12045;60.214;24.724;2023-10-08T02:53:15;3.90;99.90
23729;DHT22;12045;60.214;24.724;2023-10-08T02:55:48;3.80;99.90
23729;DHT22;12045;60.214;24.724;2023-10-08T02:58:17;4.00;99.90
23729;DHT22;12045;60.214;24.724;2023-10-08T03:00:49;3.80;99.90
23729;DHT22;12045;60.214;24.724;2023-10-08T03:03:17;3.80;99.90
23729;DHT22;12045;60.214;24.724;2023-10-08T03:05:51;3.90;99.90
23729;DHT22;12045;60.214;24.724;2023-10-08T03:08:19;4.50;99.90
23729;DHT22;12045;60.214;24.724;2023-10-08T03:10:53;4.30;99.90
23729;DHT22;12045;60.214;24.724;2023-10-08T03:13:24;3.80;99.90
23729;DHT22;12045;60.214;24.724;2023-10-08T03:15:54;3.80;99.90
23729;DHT22;12045;60.214;24.724;2023-10-08T03:18:30;3.90;99.90
23729;DHT22;12045;60.214;24.724;2023-10-08T03:21:08;3.80;99.90
23729;DHT22;12045;60.214;24.724;2023-10-08T03:23:51;4.40;99.90
23729;DHT22;12045;60.214;24.724;2023-10-08T03:26:19;3.80;99.90
23729;DHT22;12045;60.214;24.724;2023-10-08T03:29:14;3.70;99.90
23729;DHT22;12045;60.214;24.724;2023-10-08T03:31:45;3.90;99.90
23729;DHT22;12045;60.214;24.724;2023-10-08T03:34:18;3.80;99.90
23729;DHT22;12045;60.214;24.724;2023-10-08T03:36:48;3.60;99.90
23729;DHT22;12045;60.214;24.724;2023-10-08T03:39:19;4.30;99.90
23729;DHT22;12045;60.214;24.724;2023-10-08T03:41:47;3.90;99.90
23729;DHT22;12045;60.214;24.724;2023-10-08T03:44:33;3.60;99.90
23729;DHT22;12045;60.214;24.724;2023-10-08T03:47:05;3.70;99.90
23729;DHT22;12045;60.214;24.724;2023-10-08T03:49:38;3.50;99.90
23729;DHT22;12045;60.214;24.724;2023-10-08T03:52:13;3.60;99.90
23729;DHT22;12045;60.214;24.724;2023-10-08T03:54:41;3.50;99.90
23729;DHT22;12045;60.214;24.724;2023-10-08T03:57:16;3.70;99.90
23729;DHT22;12045;60.214;24.724;2023-10-08T03:59:52;4.10;99.90
23729;DHT22;12045;60.214;24.724;2023-10-08T04:02:26;3.40;99.90
23729;DHT22;12045;60.214;24.724;2023-10-08T04:05:22;3.40;99.90
23729;DHT22;12045;60.214;24.724;2023-10-08T04:07:55;3.40;99.90
23729;DHT22;12045;60.214;24.724;2023-10-08T04:10:29;3.50;99.90
23729;DHT22;12045;60.214;24.724;2023-10-08T04:13:03;3.90;99.90
23729;DHT22;12045;60.214;24.724;2023-10-08T04:15:37;3.20;99.90
23729;DHT22;12045;60.214;24.724;2023-10-08T04:18:09;3.30;99.90
23729;DHT22;12045;60.214;24.724;2023-10-08T04:20:37;3.30;99.90
23729;DHT22;12045;60.214;24.724;2023-10-08T04:23:07;3.20;99.90
23729;DHT22;12045;60.214;24.724;2023-10-08T04:25:41;4.10;99.90
23729;DHT22;12045;60.214;24.724;2023-10-08T04:28:12;3.20;99.90
23729;DHT22;12045;60.214;24.724;2023-10-08T04:30:41;3.40;99.90
23729;DHT22;12045;60.214;24.724;2023-10-08T04:33:09;3.30;99.90
23729;DHT22;12045;60.214;24.724;2023-10-08T04:35:44;3.40;99.90
23729;DHT22;12045;60.214;24.724;2023-10-08T04:38:20;3.20;99.90
23729;DHT22;12045;60.214;24.724;2023-10-08T04:40:49;3.30;99.90
23729;DHT22;12045;60.214;24.724;2023-10-08T04:43:22;3.20;99.90
23729;DHT22;12045;60.214;24.724;2023-10-08T04:45:57;4.00;99.90
23729;DHT22;12045;60.214;24.724;2023-10-08T04:48:25;3.60;99.90
23729;DHT22;12045;60.214;24.724;2023-10-08T04:50:55;4.00;99.90
23729;DHT22;12045;60.214;24.724;2023-10-08T04:53:27;3.60;99.90
23729;DHT22;12045;60.214;24.724;2023-10-08T04:56:00;3.60;99.90
23729;DHT22;12045;60.214;24.724;2023-10-08T04:58:47;3.20;99.90
23729;DHT22;12045;60.214;24.724;2023-10-08T05:01:16;4.20;99.90
23729;DHT22;12045;60.214;24.724;2023-10-08T05:04:05;3.70;99.90
23729;DHT22;12045;60.214;24.724;2023-10-08T05:06:35;3.50;99.90
23729;DHT22;12045;60.214;24.724;2023-10-08T05:09:07;3.20;99.90
23729;DHT22;12045;60.214;24.724;2023-10-08T05:11:48;3.60;99.90
23729;DHT22;12045;60.214;24.724;2023-10-08T05:14:21;3.40;99.90
23729;DHT22;12045;60.214;24.724;2023-10-08T05:17:06;3.30;99.90
23729;DHT22;12045;60.214;24.724;2023-10-08T05:19:41;3.30;99.90
23729;DHT22;12045;60.214;24.724;2023-10-08T05:22:09;3.30;99.90
23729;DHT22;12045;60.214;24.724;2023-10-08T05:24:58;3.80;99.90
23729;DHT22;12045;60.214;24.724;2023-10-08T05:27:39;3.40;99.90
23729;DHT22;12045;60.214;24.724;2023-10-08T05:30:17;3.40;99.90
23729;DHT22;12045;60.214;24.724;2023-10-08T05:32:56;4.10;99.90
23729;DHT22;12045;60.214;24.724;2023-10-08T05:35:45;3.50;99.90
23729;DHT22;12045;60.214;24.724;2023-10-08T05:38:14;3.80;99.90
23729;DHT22;12045;60.214;24.724;2023-10-08T05:40:58;3.90;99.90
23729;DHT22;12045;60.214;24.724;2023-10-08T05:43:30;3.70;99.90
23729;DHT22;12045;60.214;24.724;2023-10-08T05:48:59;3.90;99.90
23729;DHT22;12045;60.214;24.724;2023-10-08T05:51:30;3.70;99.90
23729;DHT22;12045;60.214;24.724;2023-10-08T05:54:25;3.90;99.90
23729;DHT22;12045;60.214;24.724;2023-10-08T06:02:33;3.80;99.90
23729;DHT22;12045;60.214;24.724;2023-10-08T06:05:08;4.00;99.90
23729;DHT22;12045;60.214;24.724;2023-10-08T06:07:44;3.70;99.90
23729;DHT22;12045;60.214;24.724;2023-10-08T06:10:19;3.80;99.90
23729;DHT22;12045;60.214;24.724;2023-10-08T06:15:47;3.80;99.90
23729;DHT22;12045;60.214;24.724;2023-10-08T06:18:19;3.70;99.90
23729;DHT22;12045;60.214;24.724;2023-10-08T06:20:48;3.90;99.90
23729;DHT22;12045;60.214;24.724;2023-10-08T06:23:17;4.30;99.90
23729;DHT22;12045;60.214;24.724;2023-10-08T06:25:48;4.20;99.90
23729;DHT22;12045;60.214;24.724;2023-10-08T06:28:21;3.70;99.90
23729;DHT22;12045;60.214;24.724;2023-10-08T06:30:53;3.90;99.90
23729;DHT22;12045;60.214;24.724;2023-10-08T06:33:23;3.90;99.90
23729;DHT22;12045;60.214;24.724;2023-10-08T06:35:59;4.30;99.90
23729;DHT22;12045;60.214;24.724;2023-10-08T06:38:43;4.20;99.90
23729;DHT22;12045;60.214;24.724;2023-10-08T06:41:12;4.40;99.90
23729;DHT22;12045;60.214;24.724;2023-10-08T06:43:48;4.10;99.90
23729;DHT22;12045;60.214;24.724;2023-10-08T06:46:17;4.60;99.90
23729;DHT22;12045;60.214;24.724;2023-10-08T06:48:48;3.90;99.90
23729;DHT22;12045;60.214;24.724;2023-10-08T06:51:21;4.20;99.90
23729;DHT22;12045;60.214;24.724;2023-10-08T06:53:49;4.00;99.90
23729;DHT22;12045;60.214;24.724;2023-10-08T06:56:17;4.00;99.90
23729;DHT22;12045;60.214;24.724;2023-10-08T06:58:46;4.10;99.90
23729;DHT22;12045;60.214;24.724;2023-10-08T07:01:16;4.10;99.90
23729;DHT22;12045;60.214;24.724;2023-10-08T07:03:54;4.30;99.90
23729;DHT22;12045;60.214;24.724;2023-10-08T07:06:31;4.20;99.90
23729;DHT22;12045;60.214;24.724;2023-10-08T07:08:59;4.20;99.90
23729;DHT22;12045;60.214;24.724;2023-10-08T07:11:35;5.20;99.90
23729;DHT22;12045;60.214;24.724;2023-10-08T07:14:02;4.20;99.90
23729;DHT22;12045;60.214;24.724;2023-10-08T07:16:32;4.20;99.90
23729;DHT22;12045;60.214;24.724;2023-10-08T07:19:00;4.30;99.90
23729;DHT22;12045;60.214;24.724;2023-10-08T07:21:46;4.60;99.90
23729;DHT22;12045;60.214;24.724;2023-10-08T07:24:14;4.40;99.90
23729;DHT22;12045;60.214;24.724;2023-10-08T07:26:49;4.50;99.90
23729;DHT22;12045;60.214;24.724;2023-10-08T07:29:17;4.40;99.90
23729;DHT22;12045;60.214;24.724;2023-10-08T07:31:46;4.40;99.90
23729;DHT22;12045;60.214;24.724;2023-10-08T07:34:16;4.50;99.90
23729;DHT22;12045;60.214;24.724;2023-10-08T07:36:54;4.80;99.90
23729;DHT22;12045;60.214;24.724;2023-10-08T07:39:22;4.80;99.90
23729;DHT22;12045;60.214;24.724;2023-10-08T07:42:03;4.60;99.90
23729;DHT22;12045;60.214;24.724;2023-10-08T07:44:35;4.70;99.90
23729;DHT22;12045;60.214;24.724;2023-10-08T07:47:04;4.90;99.90
23729;DHT22;12045;60.214;24.724;2023-10-08T07:49:32;4.70;99.90
23729;DHT22;12045;60.214;24.724;2023-10-08T07:52:00;4.70;99.90
23729;DHT22;12045;60.214;24.724;2023-10-08T07:54:27;4.80;99.90
23729;DHT22;12045;60.214;24.724;2023-10-08T07:56:55;5.10;99.90
23729;DHT22;12045;60.214;24.724;2023-10-08T07:59:42;5.80;99.90
23729;DHT22;12045;60.214;24.724;2023-10-08T08:02:18;5.20;99.90
23729;DHT22;12045;60.214;24.724;2023-10-08T08:04:51;4.60;99.90
23729;DHT22;12045;60.214;24.724;2023-10-08T08:07:21;4.90;99.90
23729;DHT22;12045;60.214;24.724;2023-10-08T08:09:52;5.00;99.90
23729;DHT22;12045;60.214;24.724;2023-10-08T08:12:27;4.90;99.90
23729;DHT22;12045;60.214;24.724;2023-10-08T08:14:56;4.90;99.90
23729;DHT22;12045;60.214;24.724;2023-10-08T08:17:24;5.10;99.90
23729;DHT22;12045;60.214;24.724;2023-10-08T08:19:52;5.00;99.90
23729;DHT22;12045;60.214;24.724;2023-10-08T08:22:21;5.00;99.90
23729;DHT22;12045;60.214;24.724;2023-10-08T08:24:51;5.10;99.90
23729;DHT22;12045;60.214;24.724;2023-10-08T08:27:25;5.90;99.90
23729;DHT22;12045;60.214;24.724;2023-10-08T08:30:00;5.00;99.90
23729;DHT22;12045;60.214;24.724;2023-10-08T08:32:38;5.10;99.90
23729;DHT22;12045;60.214;24.724;2023-10-08T08:35:11;5.10;99.90
23729;DHT22;12045;60.214;24.724;2023-10-08T08:37:40;5.10;99.90
23729;DHT22;12045;60.214;24.724;2023-10-08T08:40:08;5.10;99.90
23729;DHT22;12045;60.214;24.724;2023-10-08T08:42:37;5.10;99.90
23729;DHT22;12045;60.214;24.724;2023-10-08T08:45:06;5.30;99.90
23729;DHT22;12045;60.214;24.724;2023-10-08T08:47:37;5.10;99.90
23729;DHT22;12045;60.214;24.724;2023-10-08T08:50:05;5.20;99.90
23729;DHT22;12045;60.214;24.724;2023-10-08T08:52:36;5.20;99.90
23729;DHT22;12045;60.214;24.724;2023-10-08T08:55:07;5.30;99.90
23729;DHT22;12045;60.214;24.724;2023-10-08T08:57:43;5.50;99.90
23729;DHT22;12045;60.214;24.724;2023-10-08T09:00:15;5.40;99.90
23729;DHT22;12045;60.214;24.724;2023-10-08T09:02:45;5.40;99.90
23729;DHT22;12045;60.214;24.724;2023-10-08T09:05:16;5.40;99.90
23729;DHT22;12045;60.214;24.724;2023-10-08T09:08:05;6.40;99.90
23729;DHT22;12045;60.214;24.724;2023-10-08T09:10:36;5.50;99.90
23729;DHT22;12045;60.214;24.724;2023-10-08T09:13:07;5.40;99.90
23729;DHT22;12045;60.214;24.724;2023-10-08T09:15:37;6.40;99.90
23729;DHT22;12045;60.214;24.724;2023-10-08T09:18:05;5.50;99.90
23729;DHT22;12045;60.214;24.724;2023-10-08T09:20:37;5.60;99.90
23729;DHT22;12045;60.214;24.724;2023-10-08T09:23:13;6.10;99.90
23729;DHT22;12045;60.214;24.724;2023-10-08T09:25:43;6.50;99.90
23729;DHT22;12045;60.214;24.724;2023-10-08T09:28:11;6.00;99.90
23729;DHT22;12045;60.214;24.724;2023-10-08T09:30:43;5.70;99.90
23729;DHT22;12045;60.214;24.724;2023-10-08T09:33:14;6.40;99.90
23729;DHT22;12045;60.214;24.724;2023-10-08T09:35:43;6.60;99.90
23729;DHT22;12045;60.214;24.724;2023-10-08T09:38:11;5.90;99.90
23729;DHT22;12045;60.214;24.724;2023-10-08T09:40:42;6.00;99.90
23729;DHT22;12045;60.214;24.724;2023-10-08T09:43:12;5.90;99.90
23729;DHT22;12045;60.214;24.724;2023-10-08T09:45:43;6.20;99.90
23729;DHT22;12045;60.214;24.724;2023-10-08T09:48:16;5.90;99.90
23729;DHT22;12045;60.214;24.724;2023-10-08T09:50:48;6.50;99.90
23729;DHT22;12045;60.214;24.724;2023-10-08T09:53:32;6.50;99.90
23729;DHT22;12045;60.214;24.724;2023-10-08T09:56:11;6.10;99.90
23729;DHT22;12045;60.214;24.724;2023-10-08T09:58:42;6.90;99.90
23729;DHT22;12045;60.214;24.724;2023-10-08T10:01:11;6.40;99.90
23729;DHT22;12045;60.214;24.724;2023-10-08T10:03:39;6.50;99.90
23729;DHT22;12045;60.214;24.724;2023-10-08T10:06:13;7.00;99.90
23729;DHT22;12045;60.214;24.724;2023-10-08T10:08:43;6.40;99.90
23729;DHT22;12045;60.214;24.724;2023-10-08T10:11:12;6.70;99.90
23729;DHT22;12045;60.214;24.724;2023-10-08T10:13:43;6.50;99.90
23729;DHT22;12045;60.214;24.724;2023-10-08T10:16:21;6.90;99.90
23729;DHT22;12045;60.214;24.724;2023-10-08T10:18:57;7.00;99.90
23729;DHT22;12045;60.214;24.724;2023-10-08T10:21:30;7.10;99.90
23729;DHT22;12045;60.214;24.724;2023-10-08T10:23:58;6.60;99.90
23729;DHT22;12045;60.214;24.724;2023-10-08T10:26:33;6.60;99.90
23729;DHT22;12045;60.214;24.724;2023-10-08T10:31:39;6.30;99.90
23729;DHT22;12045;60.214;24.724;2023-10-08T10:34:08;6.50;99.90
23729;DHT22;12045;60.214;24.724;2023-10-08T10:36:37;6.60;99.90
23729;DHT22;12045;60.214;24.724;2023-10-08T10:39:07;6.40;99.90
23729;DHT22;12045;60.214;24.724;2023-10-08T10:41:45;6.60;99.90
23729;DHT22;12045;60.214;24.724;2023-10-08T10:44:16;6.50;99.90
23729;DHT22;12045;60.214;24.724;2023-10-08T10:46:45;6.50;99.90
23729;DHT22;12045;60.214;24.724;2023-10-08T10:49:40;6.60;99.90
23729;DHT22;12045;60.214;24.724;2023-10-08T10:52:27;6.40;99.90
23729;DHT22;12045;60.214;24.724;2023-10-08T10:55:14;6.50;99.90
23729;DHT22;12045;60.214;24.724;2023-10-08T10:57:52;6.50;99.90
23729;DHT22;12045;60.214;24.724;2023-10-08T11:00:25;7.00;99.90
23729;DHT22;12045;60.214;24.724;2023-10-08T11:03:00;6.60;99.90
23729;DHT22;12045;60.214;24.724;2023-10-08T11:05:33;6.60;99.90
23729;DHT22;12045;60.214;24.724;2023-10-08T11:08:06;7.00;99.90
23729;DHT22;12045;60.214;24.724;2023-10-08T11:10:38;6.50;99.90
23729;DHT22;12045;60.214;24.724;2023-10-08T11:13:08;6.50;99.90
23729;DHT22;12045;60.214;24.724;2023-10-08T11:15:51;6.70;99.90
23729;DHT22;12045;60.214;24.724;2023-10-08T11:18:23;6.60;99.90
23729;DHT22;12045;60.214;24.724;2023-10-08T11:20:51;7.10;99.90
23729;DHT22;12045;60.214;24.724;2023-10-08T11:23:33;6.70;99.90
23729;DHT22;12045;60.214;24.724;2023-10-08T11:26:03;6.70;99.90
23729;DHT22;12045;60.214;24.724;2023-10-08T11:28:35;7.10;99.90
23729;DHT22;12045;60.214;24.724;2023-10-08T11:31:13;6.80;99.90
23729;DHT22;12045;60.214;24.724;2023-10-08T11:33:43;6.80;99.90
23729;DHT22;12045;60.214;24.724;2023-10-08T11:36:22;6.90;99.90
23729;DHT22;12045;60.214;24.724;2023-10-08T11:39:08;6.80;99.90
23729;DHT22;12045;60.214;24.724;2023-10-08T11:41:36;6.90;99.90
23729;DHT22;12045;60.214;24.724;2023-10-08T11:44:17;6.90;99.90
23729;DHT22;12045;60.214;24.724;2023-10-08T11:46:51;6.80;99.90
23729;DHT22;12045;60.214;24.724;2023-10-08T11:49:19;6.80;99.90
23729;DHT22;12045;60.214;24.724;2023-10-08T11:51:46;7.20;99.90
23729;DHT22;12045;60.214;24.724;2023-10-08T11:54:14;6.80;99.90
23729;DHT22;12045;60.214;24.724;2023-10-08T11:56:42;6.80;99.90
23729;DHT22;12045;60.214;24.724;2023-10-08T11:59:10;6.80;99.90
23729;DHT22;12045;60.214;24.724;2023-10-08T12:01:39;6.80;99.90
23729;DHT22;12045;60.214;24.724;2023-10-08T12:04:10;6.80;99.90
23729;DHT22;12045;60.214;24.724;2023-10-08T12:06:44;6.80;99.90
23729;DHT22;12045;60.214;24.724;2023-10-08T12:09:15;6.80;99.90
23729;DHT22;12045;60.214;24.724;2023-10-08T12:11:42;6.70;99.90
23729;DHT22;12045;60.214;24.724;2023-10-08T12:14:11;6.80;99.90
23729;DHT22;12045;60.214;24.724;2023-10-08T12:16:39;6.80;99.90
23729;DHT22;12045;60.214;24.724;2023-10-08T12:19:09;6.80;99.90
23729;DHT22;12045;60.214;24.724;2023-10-08T12:21:46;6.80;99.90
23729;DHT22;12045;60.214;24.724;2023-10-08T12:24:14;6.80;99.90
23729;DHT22;12045;60.214;24.724;2023-10-08T12:26:42;7.30;99.90
23729;DHT22;12045;60.214;24.724;2023-10-08T12:29:14;6.80;99.90
23729;DHT22;12045;60.214;24.724;2023-10-08T12:31:44;6.60;99.90
23729;DHT22;12045;60.214;24.724;2023-10-08T12:34:15;6.90;99.90
23729;DHT22;12045;60.214;24.724;2023-10-08T12:36:44;6.70;99.90
23729;DHT22;12045;60.214;24.724;2023-10-08T12:39:13;6.70;99.90
23729;DHT22;12045;60.214;24.724;2023-10-08T12:41:44;6.70;99.90
23729;DHT22;12045;60.214;24.724;2023-10-08T12:44:12;6.70;99.90
23729;DHT22;12045;60.214;24.724;2023-10-08T12:46:44;6.70;99.90
23729;DHT22;12045;60.214;24.724;2023-10-08T12:49:16;6.70;99.90
23729;DHT22;12045;60.214;24.724;2023-10-08T12:51:44;6.80;99.90
23729;DHT22;12045;60.214;24.724;2023-10-08T12:54:12;6.70;99.90
23729;DHT22;12045;60.214;24.724;2023-10-08T12:56:49;6.80;99.90
23729;DHT22;12045;60.214;24.724;2023-10-08T12:59:16;6.80;99.90
23729;DHT22;12045;60.214;24.724;2023-10-08T13:01:52;7.20;99.90
23729;DHT22;12045;60.214;24.724;2023-10-08T13:04:22;6.80;99.90
23729;DHT22;12045;60.214;24.724;2023-10-08T13:06:58;7.10;99.90
23729;DHT22;12045;60.214;24.724;2023-10-08T13:09:30;6.80;99.90
23729;DHT22;12045;60.214;24.724;2023-10-08T13:12:04;6.80;99.90
23729;DHT22;12045;60.214;24.724;2023-10-08T13:14:32;6.90;99.90
23729;DHT22;12045;60.214;24.724;2023-10-08T13:17:03;6.90;99.90
23729;DHT22;12045;60.214;24.724;2023-10-08T13:19:31;7.00;99.90
23729;DHT22;12045;60.214;24.724;2023-10-08T13:22:02;7.00;99.90
23729;DHT22;12045;60.214;24.724;2023-10-08T13:24:34;6.90;99.90
23729;DHT22;12045;60.214;24.724;2023-10-08T13:27:03;6.90;99.90
23729;DHT22;12045;60.214;24.724;2023-10-08T13:29:35;6.80;99.90
23729;DHT22;12045;60.214;24.724;2023-10-08T13:32:03;6.80;99.90
23729;DHT22;12045;60.214;24.724;2023-10-08T13:34:32;6.70;99.90
23729;DHT22;12045;60.214;24.724;2023-10-08T13:36:59;6.70;99.90
23729;DHT22;12045;60.214;24.724;2023-10-08T13:39:26;6.60;99.90
23729;DHT22;12045;60.214;24.724;2023-10-08T13:41:54;6.60;99.90
23729;DHT22;12045;60.214;24.724;2023-10-08T13:44:24;6.60;99.90
23729;DHT22;12045;60.214;24.724;2023-10-08T13:46:58;6.60;99.90
23729;DHT22;12045;60.214;24.724;2023-10-08T13:49:27;6.90;99.90
23729;DHT22;12045;60.214;24.724;2023-10-08T13:51:59;6.70;99.90
23729;DHT22;12045;60.214;24.724;2023-10-08T13:54:27;6.90;99.90
23729;DHT22;12045;60.214;24.724;2023-10-08T13:57:00;6.70;99.90
23729;DHT22;12045;60.214;24.724;2023-10-08T13:59:29;6.70;99.90
23729;DHT22;12045;60.214;24.724;2023-10-08T14:02:00;6.70;99.90
23729;DHT22;12045;60.214;24.724;2023-10-08T14:04:36;6.70;99.90
23729;DHT22;12045;60.214;24.724;2023-10-08T14:07:11;6.60;99.90
23729;DHT22;12045;60.214;24.724;2023-10-08T14:09:45;6.70;99.90
23729;DHT22;12045;60.214;24.724;2023-10-08T14:12:13;6.60;99.90
23729;DHT22;12045;60.214;24.724;2023-10-08T14:14:41;6.60;99.90
23729;DHT22;12045;60.214;24.724;2023-10-08T14:17:14;6.80;99.90
23729;DHT22;12045;60.214;24.724;2023-10-08T14:20:05;6.60;99.90
23729;DHT22;12045;60.214;24.724;2023-10-08T14:22:40;6.60;99.90
23729;DHT22;12045;60.214;24.724;2023-10-08T14:25:09;6.70;99.90
23729;DHT22;12045;60.214;24.724;2023-10-08T14:27:39;7.10;99.90
23729;DHT22;12045;60.214;24.724;2023-10-08T14:30:08;6.60;99.90
23729;DHT22;12045;60.214;24.724;2023-10-08T14:32:43;6.60;99.90
23729;DHT22;12045;60.214;24.724;2023-10-08T14:35:13;6.60;99.90
23729;DHT22;12045;60.214;24.724;2023-10-08T14:38:01;6.60;99.90
23729;DHT22;12045;60.214;24.724;2023-10-08T14:40:47;6.70;99.90
23729;DHT22;12045;60.214;24.724;2023-10-08T14:43:33;6.70;99.90
23729;DHT22;12045;60.214;24.724;2023-10-08T14:46:02;6.50;99.90
23729;DHT22;12045;60.214;24.724;2023-10-08T14:48:34;6.50;99.90
23729;DHT22;12045;60.214;24.724;2023-10-08T14:51:03;7.10;99.90
23729;DHT22;12045;60.214;24.724;2023-10-08T14:53:30;6.80;99.90
23729;DHT22;12045;60.214;24.724;2023-10-08T14:55:59;7.20;99.90
23729;DHT22;12045;60.214;24.724;2023-10-08T14:58:27;6.70;99.90
23729;DHT22;12045;60.214;24.724;2023-10-08T15:00:55;6.50;99.90
23729;DHT22;12045;60.214;24.724;2023-10-08T15:03:23;6.50;99.90
23729;DHT22;12045;60.214;24.724;2023-10-08T15:05:51;6.70;99.90
23729;DHT22;12045;60.214;24.724;2023-10-08T15:08:20;7.20;99.90
23729;DHT22;12045;60.214;24.724;2023-10-08T15:10:49;7.20;99.90
23729;DHT22;12045;60.214;24.724;2023-10-08T15:13:17;6.60;99.90
23729;DHT22;12045;60.214;24.724;2023-10-08T15:15:44;7.00;99.90
23729;DHT22;12045;60.214;24.724;2023-10-08T15:18:13;6.50;99.90
23729;DHT22;12045;60.214;24.724;2023-10-08T15:20:42;6.60;99.90
23729;DHT22;12045;60.214;24.724;2023-10-08T15:23:10;6.60;99.90
23729;DHT22;12045;60.214;24.724;2023-10-08T15:25:41;6.50;99.90
23729;DHT22;12045;60.214;24.724;2023-10-08T15:28:10;6.60;99.90
23729;DHT22;12045;60.214;24.724;2023-10-08T15:30:38;6.50;99.90
23729;DHT22;12045;60.214;24.724;2023-10-08T15:33:06;6.30;99.90
23729;DHT22;12045;60.214;24.724;2023-10-08T15:35:34;6.50;99.90
23729;DHT22;12045;60.214;24.724;2023-10-08T15:38:02;6.50;99.90
23729;DHT22;12045;60.214;24.724;2023-10-08T15:40:31;6.20;99.90
23729;DHT22;12045;60.214;24.724;2023-10-08T15:43:01;6.40;99.90
23729;DHT22;12045;60.214;24.724;2023-10-08T15:45:29;6.60;99.90
23729;DHT22;12045;60.214;24.724;2023-10-08T15:47:57;6.60;99.90
23729;DHT22;12045;60.214;24.724;2023-10-08T15:50:26;6.20;99.90
23729;DHT22;12045;60.214;24.724;2023-10-08T15:52:55;6.10;99.90
23729;DHT22;12045;60.214;24.724;2023-10-08T15:55:23;6.00;99.90
23729;DHT22;12045;60.214;24.724;2023-10-08T15:57:54;6.70;99.90
23729;DHT22;12045;60.214;24.724;2023-10-08T16:00:22;6.00;99.90
23729;DHT22;12045;60.214;24.724;2023-10-08T16:02:50;6.00;99.90
23729;DHT22;12045;60.214;24.724;2023-10-08T16:05:21;6.50;99.90
23729;DHT22;12045;60.214;24.724;2023-10-08T16:07:49;6.40;99.90
23729;DHT22;12045;60.214;24.724;2023-10-08T16:10:17;5.90;99.90
23729;DHT22;12045;60.214;24.724;2023-10-08T16:12:45;6.30;99.90
23729;DHT22;12045;60.214;24.724;2023-10-08T16:15:12;6.50;99.90